createdAt,value
2019-05-21T00:00:04.667Z,98.80
2019-05-21T00:02:35.096Z,98.80
2019-05-21T00:05:05.968Z,98.70
2019-05-21T00:07:37.196Z,98.60
2019-05-21T00:10:08.493Z,98.60
2019-05-21T00:12:38.936Z,99.00
2019-05-21T00:15:10.120Z,98.70
2019-05-21T00:17:40.608Z,98.70
2019-05-21T00:20:12.786Z,98.70
2019-05-21T00:22:43.186Z,98.60
2019-05-21T00:25:16.897Z,98.40
2019-05-21T00:27:45.999Z,98.30
2019-05-21T00:30:51.670Z,98.30
2019-05-21T00:33:57.668Z,97.80
2019-05-21T00:37:04.310Z,97.80
2019-05-21T00:40:10.229Z,98.10
2019-05-21T00:42:43.424Z,98.40
2019-05-21T00:45:14.407Z,98.60
2019-05-21T00:47:45.064Z,98.80
2019-05-21T00:50:15.737Z,98.90
2019-05-21T00:52:46.784Z,99.10
2019-05-21T00:55:17.160Z,99.20
2019-05-21T00:57:47.551Z,99.30
2019-05-21T01:00:18.306Z,99.30
2019-05-21T01:02:48.603Z,99.50
2019-05-21T01:05:19.040Z,99.50
2019-05-21T01:07:50.586Z,99.60
2019-05-21T01:10:20.959Z,99.40
2019-05-21T01:12:51.489Z,99.00
2019-05-21T01:15:21.919Z,99.00
2019-05-21T01:17:52.761Z,98.90
2019-05-21T01:20:23.822Z,99.20
2019-05-21T01:22:54.557Z,99.40
2019-05-21T01:25:24.998Z,99.40
2019-05-21T01:27:55.379Z,99.00
2019-05-21T01:30:25.735Z,99.20
2019-05-21T01:32:56.250Z,99.40
2019-05-21T01:35:27.744Z,99.50
2019-05-21T01:37:58.076Z,99.20
2019-05-21T01:40:28.532Z,99.10
2019-05-21T01:42:59.120Z,99.00
2019-05-21T01:45:29.759Z,99.00
2019-05-21T01:48:01.357Z,99.00
2019-05-21T01:50:32.893Z,98.90
2019-05-21T01:53:05.594Z,98.90
2019-05-21T01:55:36.320Z,98.80
2019-05-21T01:58:07.257Z,98.60
2019-05-21T02:00:38.750Z,98.50
2019-05-21T02:03:09.196Z,98.50
2019-05-21T02:05:39.617Z,98.30
2019-05-21T02:08:09.984Z,98.30
2019-05-21T02:10:40.496Z,98.30
2019-05-21T02:13:10.858Z,97.90
2019-05-21T02:15:41.476Z,97.60
2019-05-21T02:18:12.024Z,97.50
2019-05-21T02:20:42.710Z,97.40
2019-05-21T02:23:13.195Z,97.40
2019-05-21T02:25:43.608Z,97.50
2019-05-21T02:28:14.072Z,97.50
2019-05-21T02:30:44.561Z,97.90
2019-05-21T02:33:14.951Z,97.60
2019-05-21T02:35:54.171Z,97.60
2019-05-21T02:38:19.239Z,97.50
2019-05-21T02:40:49.730Z,97.60
2019-05-21T02:43:20.189Z,97.50
2019-05-21T02:45:51.071Z,97.40
2019-05-21T02:48:21.597Z,97.40
2019-05-21T02:50:52.297Z,97.00
2019-05-21T02:53:22.895Z,96.80
2019-05-21T02:55:53.367Z,96.90
2019-05-21T02:58:23.849Z,96.90
2019-05-21T03:01:13.116Z,96.80
2019-05-21T03:03:43.790Z,96.60
2019-05-21T03:06:15.140Z,96.80
2019-05-21T03:08:47.137Z,97.00
2019-05-21T03:11:18.249Z,97.10
2019-05-21T03:13:48.760Z,96.90
2019-05-21T03:16:19.388Z,97.00
2019-05-21T03:18:49.863Z,97.20
2019-05-21T03:21:20.968Z,96.90
2019-05-21T03:23:51.547Z,97.00
2019-05-21T03:26:22.091Z,97.10
2019-05-21T03:28:52.653Z,97.30
2019-05-21T03:31:23.377Z,97.40
2019-05-21T03:33:53.867Z,97.90
2019-05-21T03:36:33.125Z,97.80
2019-05-21T03:38:56.469Z,98.00
2019-05-21T03:41:27.817Z,98.00
2019-05-21T03:43:58.378Z,98.30
2019-05-21T03:46:28.779Z,98.20
2019-05-21T03:48:59.333Z,98.10
2019-05-21T03:51:29.785Z,98.10
2019-05-21T03:54:01.078Z,98.10
2019-05-21T03:56:31.423Z,98.20
2019-05-21T03:59:02.021Z,98.50
2019-05-21T04:01:32.497Z,98.50
2019-05-21T04:04:02.996Z,98.80
2019-05-21T04:06:48.880Z,98.90
2019-05-21T04:09:06.624Z,99.00
2019-05-21T04:11:37.637Z,99.20
2019-05-21T04:14:08.176Z,99.20
2019-05-21T04:16:52.613Z,99.30
2019-05-21T04:19:26.479Z,99.40
2019-05-21T04:21:56.979Z,99.50
2019-05-21T04:24:27.755Z,99.60
2019-05-21T04:26:58.464Z,99.60
2019-05-21T04:29:29.709Z,99.60
2019-05-21T04:32:00.117Z,99.70
2019-05-21T04:34:30.553Z,99.80
2019-05-21T04:37:10.560Z,99.90
2019-05-21T04:39:34.455Z,99.90
2019-05-21T04:42:05.006Z,99.90
2019-05-21T04:44:35.439Z,99.90
2019-05-21T04:47:06.029Z,99.90
2019-05-21T04:49:36.387Z,99.90
2019-05-21T04:52:08.251Z,99.90
2019-05-21T04:54:39.546Z,99.90
2019-05-21T04:57:10.047Z,99.90
2019-05-21T04:59:40.476Z,99.90
2019-05-21T05:02:10.987Z,99.90
2019-05-21T05:04:41.629Z,99.90
2019-05-21T05:07:27.490Z,99.90
2019-05-21T05:09:47.285Z,99.90
2019-05-21T05:12:17.734Z,99.90
2019-05-21T05:14:48.083Z,99.90
2019-05-21T05:17:18.679Z,99.90
2019-05-21T05:19:49.733Z,99.90
2019-05-21T05:22:20.124Z,99.90
2019-05-21T05:24:50.661Z,99.90
2019-05-21T05:27:21.192Z,99.90
2019-05-21T05:29:51.528Z,99.90
2019-05-21T05:32:21.841Z,99.90
2019-05-21T05:34:52.263Z,99.90
2019-05-21T05:37:22.612Z,99.90
2019-05-21T05:39:53.203Z,99.90
2019-05-21T05:42:24.067Z,99.90
2019-05-21T05:44:54.948Z,99.90
2019-05-21T05:47:25.404Z,99.90
2019-05-21T05:49:57.388Z,99.90
2019-05-21T05:52:27.828Z,99.90
2019-05-21T05:54:58.194Z,99.90
2019-05-21T05:57:29.179Z,99.90
2019-05-21T05:59:59.981Z,99.90
2019-05-21T06:02:30.749Z,99.90
2019-05-21T06:05:01.054Z,99.90
2019-05-21T06:07:31.573Z,99.90
2019-05-21T06:10:02.136Z,99.90
2019-05-21T06:12:32.880Z,99.90
2019-05-21T06:15:03.573Z,99.90
2019-05-21T06:17:34.521Z,99.90
2019-05-21T06:20:05.815Z,99.90
2019-05-21T06:22:36.467Z,99.90
2019-05-21T06:25:07.621Z,99.90
2019-05-21T06:27:38.102Z,99.90
2019-05-21T06:30:09.739Z,99.90
2019-05-21T06:32:40.260Z,99.90
2019-05-21T06:35:11.119Z,99.90
2019-05-21T06:37:41.353Z,99.90
2019-05-21T06:40:12.055Z,99.90
2019-05-21T06:42:45.170Z,99.90
2019-05-21T06:45:16.015Z,99.90
2019-05-21T06:47:46.418Z,99.80
2019-05-21T06:50:17.156Z,99.60
2019-05-21T06:52:48.117Z,99.70
2019-05-21T06:55:18.746Z,99.90
2019-05-21T06:57:49.370Z,99.90
2019-05-21T07:00:20.331Z,99.90
2019-05-21T07:02:50.813Z,99.90
2019-05-21T07:05:21.373Z,99.40
2019-05-21T07:07:51.860Z,98.40
2019-05-21T07:10:22.479Z,98.70
2019-05-21T07:12:52.927Z,98.40
2019-05-21T07:15:23.541Z,97.80
2019-05-21T07:17:53.904Z,97.30
2019-05-21T07:20:25.032Z,96.70
2019-05-21T07:22:55.601Z,96.10
2019-05-21T07:25:25.927Z,96.10
2019-05-21T07:27:56.298Z,96.30
2019-05-21T07:30:26.596Z,95.40
2019-05-21T07:32:57.062Z,95.10
2019-05-21T07:35:27.506Z,95.10
2019-05-21T07:37:57.954Z,95.10
2019-05-21T07:40:28.369Z,94.80
2019-05-21T07:42:58.852Z,94.60
2019-05-21T07:45:29.157Z,94.30
2019-05-21T07:47:59.654Z,94.20
2019-05-21T07:50:30.274Z,94.50
2019-05-21T07:53:03.055Z,95.10
2019-05-21T07:55:33.588Z,95.30
2019-05-21T07:58:04.035Z,95.00
2019-05-21T08:13:58.647Z,96.00
2019-05-21T08:16:29.339Z,96.00
2019-05-21T08:18:59.766Z,96.50
2019-05-21T08:21:30.709Z,96.30
2019-05-21T08:24:01.162Z,97.30
2019-05-21T08:26:32.816Z,97.60
2019-05-21T08:29:03.669Z,98.00
2019-05-21T08:31:34.379Z,97.90
2019-05-21T08:34:05.030Z,98.60
2019-05-21T08:36:35.615Z,99.50
2019-05-21T08:39:07.934Z,99.90
2019-05-21T08:41:38.650Z,99.90
2019-05-21T08:44:09.518Z,99.90
2019-05-21T08:46:40.050Z,99.90
2019-05-21T08:49:10.495Z,99.90
2019-05-21T08:51:42.078Z,99.90
2019-05-21T08:54:12.671Z,99.90
2019-05-21T08:56:43.460Z,99.90
2019-05-21T08:59:13.893Z,99.90
2019-05-21T09:01:44.292Z,99.90
2019-05-21T09:04:16.121Z,99.90
2019-05-21T09:06:49.844Z,99.90
2019-05-21T09:09:20.873Z,99.90
2019-05-21T09:11:54.202Z,99.90
2019-05-21T09:14:28.488Z,99.90
2019-05-21T09:16:59.069Z,99.90
2019-05-21T09:19:29.678Z,99.90
2019-05-21T09:22:00.050Z,99.90
2019-05-21T09:24:30.456Z,99.90
2019-05-21T09:27:00.874Z,99.90
2019-05-21T09:29:31.196Z,98.40
2019-05-21T09:32:01.776Z,97.90
2019-05-21T09:34:47.508Z,98.60
2019-05-21T09:37:18.490Z,98.50
2019-05-21T09:39:36.540Z,96.80
2019-05-21T09:42:06.933Z,96.80
2019-05-21T09:44:37.093Z,97.20
2019-05-21T09:47:07.995Z,97.50
2019-05-21T09:49:38.235Z,95.80
2019-05-21T09:52:08.706Z,96.60
2019-05-21T09:54:39.105Z,96.90
2019-05-21T09:57:11.674Z,97.30
2019-05-21T09:59:50.063Z,97.50
2019-05-21T10:02:24.281Z,96.60
2019-05-21T10:04:55.102Z,96.10
2019-05-21T10:07:39.301Z,96.40
2019-05-21T10:09:57.941Z,95.80
2019-05-21T10:12:28.755Z,96.80
2019-05-21T10:14:59.304Z,97.20
2019-05-21T10:17:30.137Z,97.00
2019-05-21T10:20:01.211Z,96.50
2019-05-21T10:22:31.592Z,96.50
2019-05-21T10:25:02.067Z,96.20
2019-05-21T10:27:32.566Z,97.20
2019-05-21T10:30:03.283Z,97.10
2019-05-21T10:32:33.659Z,96.00
2019-05-21T10:35:04.836Z,94.40
2019-05-21T10:37:35.518Z,94.20
2019-05-21T10:40:06.651Z,94.90
2019-05-21T10:42:37.099Z,96.00
2019-05-21T10:45:08.095Z,95.00
2019-05-21T10:47:38.440Z,95.30
2019-05-21T10:50:09.004Z,94.70
2019-05-21T10:52:39.373Z,97.10
2019-05-21T10:55:15.850Z,96.60
2019-05-21T10:57:44.661Z,95.30
2019-05-21T11:00:22.957Z,96.40
2019-05-21T11:03:03.918Z,97.10
2019-05-21T11:05:36.821Z,96.80
2019-05-21T11:08:24.695Z,95.60
2019-05-21T11:10:40.538Z,94.40
2019-05-21T11:13:10.992Z,94.70
2019-05-21T11:15:41.418Z,96.00
2019-05-21T11:18:48.066Z,94.10
2019-05-21T11:21:18.852Z,92.30
2019-05-21T11:23:49.476Z,93.10
2019-05-21T11:26:19.893Z,92.60
2019-05-21T11:28:50.279Z,92.00
2019-05-21T11:31:20.819Z,93.40
2019-05-21T11:33:51.155Z,93.40
2019-05-21T11:36:21.752Z,93.40
2019-05-21T11:38:52.236Z,94.20
2019-05-21T11:41:23.046Z,95.30
2019-05-21T11:43:53.596Z,94.60
2019-05-21T11:46:24.041Z,94.50
2019-05-21T11:48:54.557Z,94.30
2019-05-21T11:51:25.351Z,95.10
2019-05-21T11:53:55.942Z,95.00
2019-05-21T11:56:26.593Z,94.80
2019-05-21T11:58:57.049Z,93.90
2019-05-21T12:01:27.685Z,94.30
2019-05-21T12:03:58.533Z,94.90
2019-05-21T12:06:32.045Z,96.00
2019-05-21T12:09:02.469Z,96.40
2019-05-21T12:11:33.372Z,96.20
2019-05-21T12:14:03.818Z,93.80
2019-05-21T12:16:34.325Z,93.70
2019-05-21T12:19:08.010Z,85.90
2019-05-21T12:21:36.863Z,89.80
2019-05-21T12:24:07.709Z,88.00
2019-05-21T12:26:38.229Z,90.80
2019-05-21T12:29:08.843Z,91.40
2019-05-21T12:31:39.650Z,91.90
2019-05-21T12:34:10.031Z,90.20
2019-05-21T12:36:40.580Z,90.00
2019-05-21T12:39:14.635Z,90.50
2019-05-21T12:41:43.923Z,89.20
2019-05-21T12:44:14.451Z,88.50
2019-05-21T12:46:44.851Z,88.90
2019-05-21T12:49:15.357Z,85.20
2019-05-21T12:51:45.758Z,86.90
2019-05-21T12:54:16.311Z,87.10
2019-05-21T12:56:47.570Z,88.10
2019-05-21T12:59:17.763Z,89.60
2019-05-21T13:01:48.245Z,89.90
2019-05-21T13:04:18.483Z,88.70
2019-05-21T13:06:48.728Z,84.60
2019-05-21T13:09:32.472Z,88.00
2019-05-21T13:11:50.822Z,84.30
2019-05-21T13:14:21.470Z,87.50
2019-05-21T13:16:52.966Z,88.50
2019-05-21T13:19:23.327Z,86.90
2019-05-21T13:21:53.746Z,90.30
2019-05-21T13:24:24.133Z,88.10
2019-05-21T13:26:54.453Z,86.80
2019-05-21T13:29:24.830Z,87.10
2019-05-21T13:31:55.150Z,86.90
2019-05-21T13:34:25.808Z,84.00
2019-05-21T13:36:56.068Z,84.70
2019-05-21T13:39:26.770Z,83.50
2019-05-21T13:41:57.735Z,85.30
2019-05-21T13:44:28.018Z,84.40
2019-05-21T13:46:58.170Z,81.80
2019-05-21T13:49:28.527Z,85.80
2019-05-21T13:51:58.669Z,88.10
2019-05-21T13:54:28.941Z,90.10
2019-05-21T13:56:59.699Z,89.10
2019-05-21T13:59:30.024Z,91.00
2019-05-21T14:02:00.758Z,90.10
2019-05-21T14:04:31.748Z,90.40
2019-05-21T14:07:01.902Z,89.90
2019-05-21T14:09:32.085Z,89.00
2019-05-21T14:12:02.357Z,91.50
2019-05-21T14:14:32.948Z,91.20
2019-05-21T14:17:03.393Z,87.50
2019-05-21T14:19:33.789Z,90.00
2019-05-21T14:22:04.218Z,87.70
2019-05-21T14:24:34.607Z,86.70
2019-05-21T14:27:06.334Z,81.20
2019-05-21T14:29:36.744Z,81.70
2019-05-21T14:32:07.317Z,84.90
2019-05-21T14:34:37.831Z,79.80
2019-05-21T14:37:08.669Z,82.60
2019-05-21T14:39:39.903Z,83.50
2019-05-21T14:42:10.678Z,82.60
2019-05-21T14:44:41.222Z,88.00
2019-05-21T14:47:11.728Z,86.70
2019-05-21T14:49:44.091Z,90.80
2019-05-21T14:52:14.736Z,92.40
2019-05-21T14:54:45.734Z,92.30
2019-05-21T14:57:16.587Z,91.50
2019-05-21T14:59:47.267Z,91.30
2019-05-21T15:02:17.988Z,91.20
2019-05-21T15:04:48.837Z,91.10
2019-05-21T15:07:19.233Z,90.90
2019-05-21T15:09:53.136Z,91.70
2019-05-21T15:12:21.823Z,91.60
2019-05-21T15:14:53.661Z,92.00
2019-05-21T15:17:24.631Z,93.00
2019-05-21T15:19:56.902Z,94.20
2019-05-21T15:22:27.468Z,95.10
2019-05-21T15:24:58.023Z,95.70
2019-05-21T15:27:28.710Z,96.20
2019-05-21T15:29:59.162Z,96.70
2019-05-21T15:32:30.867Z,96.60
2019-05-21T15:35:01.594Z,96.40
2019-05-21T15:37:32.315Z,95.40
2019-05-21T15:40:02.793Z,96.00
2019-05-21T15:42:33.498Z,96.20
2019-05-21T15:45:04.046Z,95.60
2019-05-21T15:47:34.491Z,95.90
2019-05-21T15:50:05.401Z,96.40
2019-05-21T15:52:35.865Z,95.90
2019-05-21T15:55:07.623Z,96.00
2019-05-21T15:57:38.199Z,96.10
2019-05-21T16:00:08.872Z,96.40
2019-05-21T16:02:39.298Z,96.90
2019-05-21T16:05:10.056Z,95.80
2019-05-21T16:07:42.781Z,96.50
2019-05-21T16:10:13.192Z,96.80
2019-05-21T16:12:43.541Z,97.30
2019-05-21T16:15:13.982Z,97.40
2019-05-21T16:17:44.430Z,97.20
2019-05-21T16:20:16.197Z,97.30
2019-05-21T16:22:46.360Z,97.30
2019-05-21T16:25:16.911Z,98.30
2019-05-21T16:27:47.253Z,98.80
2019-05-21T16:30:18.370Z,99.10
2019-05-21T16:32:49.017Z,99.20
2019-05-21T16:35:19.591Z,99.20
2019-05-21T16:37:49.837Z,98.60
2019-05-21T16:40:20.338Z,99.00
2019-05-21T16:42:51.023Z,98.70
2019-05-21T16:45:21.961Z,99.10
2019-05-21T16:47:52.477Z,99.90
2019-05-21T16:50:23.747Z,99.90
2019-05-21T16:52:54.554Z,99.90
2019-05-21T16:55:25.088Z,99.90
2019-05-21T16:57:56.446Z,99.90
2019-05-21T17:00:27.963Z,99.90
2019-05-21T17:02:58.337Z,99.90
2019-05-21T17:05:29.093Z,99.90
2019-05-21T17:07:59.688Z,99.90
2019-05-21T17:10:30.304Z,99.90
2019-05-21T17:13:00.969Z,99.90
2019-05-21T17:15:31.703Z,99.90
2019-05-21T17:18:02.215Z,99.90
2019-05-21T17:20:34.271Z,99.90
2019-05-21T17:23:05.814Z,99.90
2019-05-21T17:25:36.477Z,99.90
2019-05-21T17:28:07.108Z,98.90
2019-05-21T17:30:37.742Z,98.30
2019-05-21T17:33:08.464Z,98.00
2019-05-21T17:35:38.981Z,97.80
2019-05-21T17:38:09.633Z,97.70
2019-05-21T17:40:40.254Z,97.80
2019-05-21T17:43:10.768Z,97.20
2019-05-21T17:45:41.339Z,97.60
2019-05-21T17:48:11.781Z,97.90
2019-05-21T17:50:42.381Z,97.90
2019-05-21T17:53:12.900Z,97.80
2019-05-21T17:55:43.307Z,97.70
2019-05-21T17:58:14.440Z,98.00
2019-05-21T18:00:48.318Z,98.10
2019-05-21T18:03:19.185Z,98.40
2019-05-21T18:05:51.323Z,98.70
2019-05-21T18:08:22.052Z,98.60
2019-05-21T18:10:52.982Z,98.20
2019-05-21T18:13:25.222Z,98.50
2019-05-21T18:15:56.839Z,98.80
2019-05-21T18:18:28.226Z,98.30
2019-05-21T18:20:58.975Z,98.40
2019-05-21T18:23:29.999Z,98.50
2019-05-21T18:26:00.882Z,98.30
2019-05-21T18:28:31.782Z,98.40
2019-05-21T18:31:03.032Z,98.70
2019-05-21T18:33:33.541Z,98.90
2019-05-21T18:36:04.159Z,99.10
2019-05-21T18:38:35.139Z,99.50
2019-05-21T18:41:06.746Z,99.80
2019-05-21T18:43:37.728Z,99.90
2019-05-21T18:46:08.464Z,99.90
2019-05-21T18:48:39.001Z,99.90
2019-05-21T18:51:09.699Z,99.90
2019-05-21T18:53:40.483Z,99.90
2019-05-21T18:56:10.976Z,99.90
2019-05-21T18:58:41.685Z,99.90
2019-05-21T19:01:12.583Z,99.90
2019-05-21T19:03:43.222Z,99.90
2019-05-21T19:06:14.364Z,99.90
2019-05-21T19:08:45.046Z,99.90
2019-05-21T19:11:15.815Z,99.90
2019-05-21T19:13:46.546Z,99.90
2019-05-21T19:16:17.354Z,99.90
2019-05-21T19:18:48.014Z,99.90
2019-05-21T19:21:18.511Z,99.90
2019-05-21T19:23:49.006Z,99.90
2019-05-21T19:26:19.293Z,99.90
2019-05-21T19:28:49.566Z,99.90
2019-05-21T19:31:19.981Z,99.90
2019-05-21T19:33:50.532Z,99.90
2019-05-21T19:36:21.331Z,99.90
2019-05-21T19:38:52.081Z,99.90
2019-05-21T19:41:22.785Z,99.90
2019-05-21T19:43:53.428Z,99.90
2019-05-21T19:46:24.217Z,99.90
2019-05-21T19:48:54.991Z,99.90
2019-05-21T19:51:25.608Z,99.90
2019-05-21T19:53:56.262Z,99.90
2019-05-21T19:56:26.992Z,99.90
2019-05-21T19:58:59.786Z,99.90
2019-05-21T20:01:30.698Z,99.90
2019-05-21T20:04:02.192Z,99.90
2019-05-21T20:06:38.373Z,99.90
2019-05-21T20:12:09.027Z,99.90
2019-05-21T20:14:40.676Z,99.90
2019-05-21T20:17:17.162Z,99.90
2019-05-21T20:19:51.979Z,99.90
2019-05-21T20:22:26.310Z,99.90
2019-05-21T20:24:59.762Z,99.90
2019-05-21T20:27:30.517Z,99.90
2019-05-21T20:30:16.918Z,99.90
2019-05-21T20:32:59.744Z,99.90
2019-05-21T20:35:34.130Z,99.90
2019-05-21T20:38:07.952Z,99.90
2019-05-21T20:40:42.213Z,99.90
2019-05-21T20:43:13.878Z,99.90
2019-05-21T20:45:49.275Z,99.90
2019-05-21T20:48:27.214Z,99.90
2019-05-21T20:51:18.888Z,99.90
2019-05-21T20:53:49.360Z,99.90
2019-05-21T20:56:19.801Z,99.90
2019-05-21T20:58:50.492Z,99.90
2019-05-21T21:01:21.340Z,99.90
2019-05-21T21:03:52.213Z,99.90
2019-05-21T21:06:35.029Z,99.90
2019-05-21T21:08:56.514Z,99.90
2019-05-21T21:11:27.678Z,99.90
2019-05-21T21:13:58.327Z,99.90
2019-05-21T21:16:28.515Z,99.90
2019-05-21T21:18:59.358Z,99.90
2019-05-21T21:21:30.114Z,99.90
2019-05-21T21:24:00.902Z,99.90
2019-05-21T21:26:31.975Z,99.90
2019-05-21T21:29:02.431Z,99.90
2019-05-21T21:31:33.115Z,99.90
2019-05-21T21:34:05.062Z,99.90
2019-05-21T21:36:36.209Z,99.90
2019-05-21T21:39:11.797Z,99.90
2019-05-21T21:41:43.064Z,99.90
2019-05-21T21:44:13.518Z,99.90
2019-05-21T21:46:44.640Z,99.90
2019-05-21T21:49:16.002Z,99.90
2019-05-21T21:51:46.801Z,99.90
2019-05-21T21:54:17.774Z,99.90
2019-05-21T21:56:48.610Z,99.90
2019-05-21T21:59:19.443Z,99.90
2019-05-21T22:01:55.663Z,99.90
2019-05-21T22:04:36.445Z,99.90
2019-05-21T22:07:08.033Z,99.90
2019-05-21T22:09:40.036Z,99.90
2019-05-21T22:12:12.929Z,99.90
2019-05-21T22:14:50.933Z,99.90
2019-05-21T22:17:18.457Z,99.90
2019-05-21T22:19:48.949Z,99.90
2019-05-21T22:22:19.696Z,99.90
2019-05-21T22:24:51.432Z,99.90
2019-05-21T22:27:22.892Z,99.90
2019-05-21T22:29:54.241Z,99.90
2019-05-21T22:32:26.053Z,99.90
2019-05-21T22:34:56.517Z,99.90
2019-05-21T22:37:27.953Z,99.90
2019-05-21T22:39:58.766Z,99.90
2019-05-21T22:42:30.453Z,99.90
2019-05-21T22:45:07.866Z,99.90
2019-05-21T22:47:33.727Z,99.90
2019-05-21T22:50:04.610Z,99.90
2019-05-21T22:52:35.133Z,99.90
2019-05-21T22:55:06.180Z,99.90
2019-05-21T22:57:36.976Z,99.90
2019-05-21T23:00:09.581Z,99.90
2019-05-21T23:02:42.460Z,99.90
2019-05-21T23:05:13.691Z,99.90
2019-05-21T23:07:44.652Z,99.90
2019-05-21T23:10:17.330Z,99.90
2019-05-21T23:12:48.074Z,99.90
2019-05-21T23:15:24.890Z,99.90
2019-05-21T23:17:51.756Z,99.90
2019-05-21T23:20:24.354Z,99.90
2019-05-21T23:22:57.259Z,99.90
2019-05-21T23:25:28.580Z,99.90
2019-05-21T23:28:00.136Z,99.90
2019-05-21T23:30:30.709Z,99.90
2019-05-21T23:33:01.467Z,99.90
2019-05-21T23:35:32.784Z,99.90
2019-05-21T23:38:03.317Z,99.90
2019-05-21T23:40:35.417Z,99.90
2019-05-21T23:43:06.113Z,99.90
2019-05-21T23:45:37.331Z,99.90
2019-05-21T23:48:09.664Z,99.90
2019-05-21T23:50:40.454Z,99.90
2019-05-21T23:53:11.853Z,99.90
2019-05-21T23:55:43.240Z,99.90
2019-05-21T23:58:14.386Z,99.90
